Terminal Aerodrome Forecast
Issued by NWS Upton, NY

Home | Current Version | Previous Version | Text Only | Print | Product List | Glossary On
Versions: 1 2 3 4 5 6 7 8 9 10 11 12 13 14 15 16 17 18 19 20 21 22 23 24 25 26 27
000
FTUS41 KOKX 131400 AAB
TAFLGA
TAF AMD
KLGA 131432Z 1315/1412 19009KT P6SM BKN020 BKN100 BKN250
      TEMPO 1315/1316 5SM -SHRA
     FM131600 19012G19KT P6SM SCT020 BKN050 BKN150
     FM131800 19014G22KT P6SM SCT060 BKN150
     FM132000 18017G25KT P6SM BKN060 BKN150
     FM140000 18012KT P6SM FEW006 BKN060 BKN100
     FM140700 20009KT 4SM BR SCT006 BKN040 BKN080=

USA.gov is the U.S. government's official web portal to all federal, state and local government web resources and services.